createdAt,value
2023-01-09T00:01:46.514Z,82.46
2023-01-09T00:04:16.610Z,82.30
2023-01-09T00:06:48.291Z,82.82
2023-01-09T00:09:18.012Z,82.79
2023-01-09T00:11:48.217Z,82.89
2023-01-09T00:14:19.390Z,82.97
2023-01-09T00:16:49.534Z,82.95
2023-01-09T00:19:19.411Z,83.29
2023-01-09T00:21:49.473Z,82.66
2023-01-09T00:24:18.886Z,83.66
2023-01-09T00:26:48.607Z,83.75
2023-01-09T00:29:18.495Z,83.33
2023-01-09T00:31:48.217Z,84.37
2023-01-09T00:34:17.999Z,83.97
2023-01-09T00:36:47.760Z,83.98
2023-01-09T00:39:17.492Z,83.98
2023-01-09T00:41:50.502Z,84.20
2023-01-09T00:44:26.271Z,84.22
2023-01-09T00:46:59.091Z,84.36
2023-01-09T00:49:32.136Z,83.96
2023-01-09T00:52:02.586Z,86.11
2023-01-09T00:54:33.823Z,85.54
2023-01-09T00:57:03.665Z,85.84
2023-01-09T00:59:33.925Z,86.14
2023-01-09T01:02:05.310Z,86.00
2023-01-09T01:04:53.136Z,86.12
2023-01-09T01:07:42.744Z,86.19
2023-01-09T01:10:22.658Z,86.09
2023-01-09T01:12:53.425Z,86.69
2023-01-09T01:15:23.451Z,86.92
2023-01-09T01:17:53.233Z,87.19
2023-01-09T01:20:23.150Z,88.19
2023-01-09T01:22:52.965Z,87.78
2023-01-09T01:25:22.588Z,88.36
2023-01-09T01:27:52.372Z,88.13
2023-01-09T01:30:22.163Z,88.44
2023-01-09T01:32:51.893Z,88.21
2023-01-09T01:35:22.445Z,87.77
2023-01-09T01:37:52.475Z,87.65
2023-01-09T01:42:53.126Z,88.67
2023-01-09T01:45:24.765Z,87.80
2023-01-09T01:47:57.537Z,88.03
2023-01-09T01:50:30.034Z,87.65
2023-01-09T01:53:14.661Z,88.16
2023-01-09T01:55:50.122Z,88.36
2023-01-09T01:58:20.943Z,87.95
2023-01-09T02:00:50.878Z,88.32
2023-01-09T02:03:23.708Z,87.95
2023-01-09T02:05:53.759Z,87.87
2023-01-09T02:08:23.827Z,88.62
2023-01-09T02:10:54.468Z,88.04
2023-01-09T02:13:26.419Z,88.09
2023-01-09T02:16:15.851Z,88.13
2023-01-09T02:18:52.423Z,88.17
2023-01-09T02:21:46.006Z,88.47
2023-01-09T02:24:33.318Z,89.05
2023-01-09T02:27:17.835Z,88.97
2023-01-09T02:30:09.958Z,89.31
2023-01-09T02:32:48.314Z,89.97
2023-01-09T02:35:32.647Z,89.75
2023-01-09T02:38:16.563Z,90.64
2023-01-09T02:40:49.365Z,90.13
2023-01-09T02:43:19.529Z,90.23
2023-01-09T02:45:49.337Z,89.97
2023-01-09T02:48:18.921Z,90.94
2023-01-09T02:51:00.600Z,90.32
2023-01-09T02:53:35.948Z,90.32
2023-01-09T02:56:25.757Z,90.04
2023-01-09T02:59:01.304Z,90.10
2023-01-09T03:01:59.025Z,89.94
2023-01-09T03:04:46.545Z,90.05
2023-01-09T03:07:28.049Z,90.15
2023-01-09T03:10:00.826Z,90.11
2023-01-09T03:12:33.717Z,89.76
2023-01-09T03:15:05.485Z,89.88
2023-01-09T03:17:41.079Z,90.42
2023-01-09T03:20:15.455Z,90.42
2023-01-09T03:22:56.733Z,89.71
2023-01-09T03:25:28.867Z,89.95
2023-01-09T03:28:07.605Z,90.39
2023-01-09T03:30:38.116Z,90.38
2023-01-09T03:33:08.101Z,89.79
2023-01-09T03:35:38.231Z,89.79
2023-01-09T03:38:09.805Z,89.64
2023-01-09T03:40:39.536Z,88.68
2023-01-09T03:43:09.295Z,89.32
2023-01-09T03:45:39.671Z,89.31
2023-01-09T03:48:09.269Z,89.17
2023-01-09T03:50:39.075Z,89.35
2023-01-09T03:53:08.504Z,89.35
2023-01-09T03:55:38.222Z,89.70
2023-01-09T03:58:09.347Z,90.16
2023-01-09T04:00:40.260Z,89.89
2023-01-09T04:03:10.689Z,89.16
2023-01-09T04:05:40.465Z,89.39
2023-01-09T04:08:11.338Z,90.75
2023-01-09T04:10:41.275Z,90.79
2023-01-09T04:13:11.017Z,90.79
2023-01-09T04:15:40.797Z,90.66
2023-01-09T04:18:11.586Z,90.47
2023-01-09T04:20:41.336Z,90.47
2023-01-09T04:23:11.095Z,91.04
2023-01-09T04:25:41.107Z,90.66
2023-01-09T04:28:11.426Z,91.15
2023-01-09T04:30:41.246Z,90.96
2023-01-09T04:33:10.973Z,90.18
2023-01-09T04:35:40.709Z,90.54
2023-01-09T04:38:11.351Z,90.48
2023-01-09T04:40:41.059Z,90.43
2023-01-09T04:43:10.790Z,91.17
2023-01-09T04:45:40.652Z,91.19
2023-01-09T04:48:11.629Z,90.62
2023-01-09T04:50:41.373Z,91.08
2023-01-09T04:53:11.103Z,90.77
2023-01-09T04:55:41.391Z,90.60
2023-01-09T04:58:11.633Z,90.93
2023-01-09T05:00:41.342Z,90.86
2023-01-09T05:03:11.063Z,90.82
2023-01-09T05:05:40.792Z,90.43
2023-01-09T05:08:11.335Z,89.96
2023-01-09T05:10:41.071Z,90.56
2023-01-09T05:13:10.812Z,90.50
2023-01-09T05:15:40.528Z,90.54
2023-01-09T05:18:11.327Z,90.60
2023-01-09T05:20:41.102Z,91.07
2023-01-09T05:23:10.832Z,90.14
2023-01-09T05:25:40.550Z,89.54
2023-01-09T05:28:11.524Z,89.38
2023-01-09T05:30:41.330Z,90.01
2023-01-09T05:33:11.120Z,89.42
2023-01-09T05:35:40.845Z,89.09
2023-01-09T05:38:11.720Z,89.47
2023-01-09T05:40:41.551Z,89.47
2023-01-09T05:43:11.308Z,90.16
2023-01-09T05:45:40.814Z,90.62
2023-01-09T05:48:11.463Z,90.42
2023-01-09T05:50:41.168Z,89.59
2023-01-09T05:53:10.984Z,89.23
2023-01-09T05:55:41.093Z,89.23
2023-01-09T05:58:12.656Z,88.79
2023-01-09T06:00:42.454Z,88.43
2023-01-09T06:03:12.512Z,88.42
2023-01-09T06:05:42.268Z,88.83
2023-01-09T06:08:11.826Z,88.52
2023-01-09T06:10:42.012Z,88.10
2023-01-09T06:13:11.730Z,88.15
2023-01-09T06:15:41.545Z,88.90
2023-01-09T06:18:11.403Z,87.94
2023-01-09T06:20:41.147Z,87.88
2023-01-09T06:23:13.308Z,87.62
2023-01-09T06:25:43.318Z,87.44
2023-01-09T06:28:13.051Z,87.21
2023-01-09T06:30:42.633Z,87.21
2023-01-09T06:33:12.679Z,86.91
2023-01-09T06:35:42.721Z,87.79
2023-01-09T06:38:12.448Z,87.83
2023-01-09T06:40:42.200Z,88.24
2023-01-09T06:43:12.366Z,87.75
2023-01-09T06:45:43.820Z,87.98
2023-01-09T06:48:13.750Z,88.81
2023-01-09T06:50:43.504Z,88.90
2023-01-09T06:53:13.245Z,88.51
2023-01-09T06:55:42.997Z,89.08
2023-01-09T06:58:13.106Z,88.72
2023-01-09T07:00:43.071Z,88.00
2023-01-09T07:03:14.472Z,88.32
2023-01-09T07:05:44.369Z,88.32
2023-01-09T07:08:14.917Z,88.70
2023-01-09T07:10:45.674Z,88.17
2023-01-09T07:13:15.104Z,88.05
2023-01-09T07:15:44.978Z,88.84
2023-01-09T07:18:14.841Z,88.84
2023-01-09T07:20:44.622Z,88.72
2023-01-09T07:23:15.002Z,90.52
2023-01-09T07:25:44.980Z,89.23
2023-01-09T07:28:14.705Z,89.23
2023-01-09T07:30:44.475Z,90.24
2023-01-09T07:33:14.484Z,90.24
2023-01-09T07:35:44.457Z,90.06
2023-01-09T07:38:14.225Z,89.83
2023-01-09T07:40:43.956Z,90.31
2023-01-09T07:43:13.722Z,89.75
2023-01-09T07:45:43.443Z,89.15
2023-01-09T07:48:13.169Z,89.87
2023-01-09T07:50:42.908Z,90.05
2023-01-09T07:53:12.684Z,89.59
2023-01-09T07:55:44.371Z,89.94
2023-01-09T07:58:14.094Z,89.97
2023-01-09T08:00:44.083Z,90.04
2023-01-09T08:03:13.886Z,90.17
2023-01-09T08:05:43.669Z,90.31
2023-01-09T08:08:14.881Z,89.38
2023-01-09T08:10:44.959Z,89.54
2023-01-09T08:13:15.053Z,89.04
2023-01-09T08:15:45.113Z,89.10
2023-01-09T08:18:14.869Z,89.73
2023-01-09T08:23:05.900Z,90.03
2023-01-09T08:25:35.712Z,89.42
2023-01-09T08:28:09.276Z,89.50
2023-01-09T08:30:39.175Z,88.81
2023-01-09T08:33:08.982Z,88.67
2023-01-09T08:35:38.748Z,89.15
2023-01-09T08:38:09.600Z,88.73
2023-01-09T08:40:39.716Z,89.62
2023-01-09T08:43:27.603Z,90.26
2023-01-09T08:46:15.116Z,90.33
2023-01-09T08:48:44.964Z,90.91
2023-01-09T08:51:15.113Z,90.03
2023-01-09T08:53:44.589Z,90.58
2023-01-09T08:56:14.321Z,90.85
2023-01-09T08:58:44.949Z,90.81
2023-01-09T09:01:14.717Z,90.43
2023-01-09T09:03:44.568Z,90.26
2023-01-09T09:06:14.256Z,90.73
2023-01-09T09:08:44.021Z,90.71
2023-01-09T09:11:14.049Z,90.80
2023-01-09T09:13:43.872Z,90.14
2023-01-09T09:16:13.451Z,89.78
2023-01-09T09:18:43.199Z,90.27
2023-01-09T09:21:12.911Z,89.80
2023-01-09T09:23:44.253Z,90.21
2023-01-09T09:26:13.849Z,89.25
2023-01-09T09:28:43.575Z,89.69
2023-01-09T09:31:13.332Z,89.16
2023-01-09T09:33:43.083Z,89.16
2023-01-09T09:36:12.497Z,89.36
2023-01-09T09:38:42.598Z,89.20
2023-01-09T09:41:39.203Z,88.74
2023-01-09T09:44:34.319Z,89.37
2023-01-09T09:47:12.625Z,89.24
2023-01-09T09:49:47.684Z,88.58
2023-01-09T09:52:20.574Z,88.86
2023-01-09T09:54:54.017Z,88.86
2023-01-09T09:57:26.881Z,88.48
2023-01-09T09:59:57.649Z,89.16
2023-01-09T10:02:33.300Z,89.08
2023-01-09T10:05:08.331Z,88.80
2023-01-09T10:07:42.184Z,89.03
2023-01-09T10:10:33.839Z,87.36
2023-01-09T10:13:06.091Z,87.37
2023-01-09T10:15:44.715Z,87.79
2023-01-09T10:18:26.553Z,86.97
2023-01-09T10:20:58.983Z,87.31
2023-01-09T10:23:40.665Z,87.23
2023-01-09T10:26:31.112Z,87.36
2023-01-09T10:29:19.923Z,87.31
2023-01-09T10:32:18.185Z,86.42
2023-01-09T10:35:10.283Z,85.91
2023-01-09T10:37:43.478Z,86.21
2023-01-09T10:40:22.048Z,85.53
2023-01-09T10:45:46.668Z,85.18
2023-01-09T10:48:36.782Z,85.13
2023-01-09T10:51:21.204Z,85.51
2023-01-09T10:53:56.541Z,86.84
2023-01-09T10:56:29.299Z,86.45
2023-01-09T10:58:59.402Z,86.31
2023-01-09T11:01:36.881Z,86.47
2023-01-09T11:04:27.189Z,86.32
2023-01-09T11:07:02.745Z,86.56
2023-01-09T11:09:51.777Z,87.24
2023-01-09T11:12:27.131Z,86.37
2023-01-09T11:14:56.709Z,85.85
2023-01-09T11:17:28.718Z,84.91
2023-01-09T11:20:26.044Z,85.22
2023-01-09T11:22:58.053Z,84.49
2023-01-09T11:25:29.613Z,85.09
2023-01-09T11:28:08.222Z,84.07
2023-01-09T11:30:40.494Z,82.96
2023-01-09T11:33:18.891Z,83.48
2023-01-09T11:36:07.890Z,82.73
2023-01-09T11:38:55.338Z,83.03
2023-01-09T11:41:31.389Z,83.02
2023-01-09T11:44:01.870Z,83.02
2023-01-09T11:46:43.924Z,82.89
2023-01-09T11:49:22.942Z,83.04
2023-01-09T11:52:19.412Z,82.94
2023-01-09T11:55:07.112Z,82.95
2023-01-09T11:57:36.949Z,81.94
2023-01-09T12:00:28.894Z,81.97
2023-01-09T12:03:07.648Z,81.70
2023-01-09T12:05:51.315Z,81.19
2023-01-09T12:08:32.697Z,82.18
2023-01-09T12:11:17.094Z,80.88
2023-01-09T12:14:04.946Z,81.29
2023-01-09T12:16:37.731Z,80.99
2023-01-09T12:19:16.412Z,79.61
2023-01-09T12:22:01.195Z,79.69
2023-01-09T12:24:51.175Z,77.80
2023-01-09T12:27:52.419Z,77.30
2023-01-09T12:30:33.704Z,75.84
2023-01-09T12:33:15.245Z,76.23
2023-01-09T12:35:54.846Z,77.43
2023-01-09T12:38:49.212Z,77.82
2023-01-09T12:41:24.550Z,78.70
2023-01-09T12:44:27.253Z,78.48
2023-01-09T12:47:06.153Z,79.27
2023-01-09T12:49:38.933Z,78.11
2023-01-09T12:52:13.825Z,78.17
2023-01-09T12:55:03.504Z,79.32
2023-01-09T12:57:38.508Z,79.69
2023-01-09T13:00:27.815Z,81.18
2023-01-09T13:03:12.601Z,82.00
2023-01-09T13:05:38.438Z,83.87
2023-01-09T13:08:15.588Z,83.87
2023-01-09T13:10:50.929Z,84.18
2023-01-09T13:13:26.049Z,82.11
2023-01-09T13:15:58.604Z,82.11
2023-01-09T13:18:33.983Z,82.17
2023-01-09T13:21:04.113Z,82.44
2023-01-09T13:23:36.891Z,82.28
2023-01-09T13:26:13.407Z,81.73
2023-01-09T13:28:47.815Z,82.16
2023-01-09T13:31:53.388Z,82.36
2023-01-09T13:34:25.870Z,82.05
2023-01-09T13:36:57.640Z,83.05
2023-01-09T13:39:33.136Z,83.85
2023-01-09T13:42:23.755Z,89.13
2023-01-09T13:44:59.210Z,89.13
2023-01-09T13:47:30.051Z,88.63
2023-01-09T13:50:02.844Z,88.15
2023-01-09T13:52:44.898Z,88.61
2023-01-09T13:55:17.712Z,89.41
2023-01-09T13:58:10.459Z,89.73
2023-01-09T14:00:43.325Z,89.04
2023-01-09T14:03:17.021Z,88.95
2023-01-09T14:05:49.765Z,89.87
2023-01-09T14:08:22.863Z,90.10
2023-01-09T14:10:58.279Z,90.48
2023-01-09T14:13:33.757Z,90.35
2023-01-09T14:16:11.957Z,90.54
2023-01-09T14:18:50.499Z,91.27
2023-01-09T14:21:20.683Z,90.55
2023-01-09T14:24:05.322Z,90.23
2023-01-09T14:26:48.414Z,91.03
2023-01-09T14:29:38.524Z,91.03
2023-01-09T14:32:27.151Z,89.47
2023-01-09T14:35:26.757Z,90.19
2023-01-09T14:38:17.091Z,90.16
2023-01-09T14:40:49.880Z,89.09
2023-01-09T14:43:31.144Z,88.95
2023-01-09T14:46:04.312Z,88.69
2023-01-09T14:48:36.582Z,88.42
2023-01-09T14:51:08.859Z,88.59
2023-01-09T14:53:40.010Z,88.67
2023-01-09T14:56:15.121Z,88.49
2023-01-09T14:58:44.853Z,88.30
2023-01-09T15:01:18.765Z,88.08
2023-01-09T15:03:51.596Z,87.80
2023-01-09T15:06:27.492Z,87.44
2023-01-09T15:09:18.042Z,87.44
2023-01-09T15:11:48.422Z,88.15
2023-01-09T15:14:21.167Z,88.14
2023-01-09T15:16:51.044Z,87.87
2023-01-09T15:19:21.116Z,88.09
2023-01-09T15:22:03.333Z,87.69
2023-01-09T15:24:35.235Z,87.63
2023-01-09T15:27:07.908Z,87.20
2023-01-09T15:29:37.715Z,87.46
2023-01-09T15:32:21.320Z,87.32
2023-01-09T15:34:51.341Z,87.45
2023-01-09T15:37:27.053Z,87.15
2023-01-09T15:39:58.645Z,87.48
2023-01-09T15:42:57.542Z,87.46
2023-01-09T15:45:41.218Z,86.81
2023-01-09T15:48:20.744Z,87.29
2023-01-09T15:50:53.374Z,86.73
2023-01-09T15:53:25.510Z,86.23
2023-01-09T15:56:20.499Z,86.80
2023-01-09T15:58:51.596Z,88.13
2023-01-09T16:01:32.649Z,88.13
2023-01-09T16:04:15.695Z,87.49
2023-01-09T16:06:50.921Z,87.47
2023-01-09T16:09:26.768Z,86.91
2023-01-09T16:12:04.610Z,87.58
2023-01-09T16:14:43.943Z,87.38
2023-01-09T16:17:16.540Z,87.08
2023-01-09T16:19:54.842Z,87.61
2023-01-09T16:22:29.936Z,87.61
2023-01-09T16:25:02.452Z,87.33
2023-01-09T16:27:34.182Z,87.67
2023-01-09T16:30:09.082Z,87.48
2023-01-09T16:32:47.777Z,86.78
2023-01-09T16:35:20.335Z,87.87
2023-01-09T16:37:50.223Z,87.45
2023-01-09T16:40:25.651Z,88.05
2023-01-09T16:43:01.661Z,87.82
2023-01-09T16:45:34.795Z,88.93
2023-01-09T16:48:15.542Z,87.90
2023-01-09T16:50:45.550Z,87.91
2023-01-09T16:53:18.493Z,88.12
2023-01-09T16:55:48.453Z,87.67
2023-01-09T16:58:21.242Z,87.91
2023-01-09T17:00:51.403Z,87.55
2023-01-09T17:03:21.530Z,87.50
2023-01-09T17:05:54.367Z,86.63
2023-01-09T17:08:33.010Z,87.41
2023-01-09T17:11:03.925Z,87.82
2023-01-09T17:13:33.734Z,88.06
2023-01-09T17:16:03.495Z,88.05
2023-01-09T17:18:33.270Z,88.88
2023-01-09T17:21:02.991Z,88.85
2023-01-09T17:23:32.796Z,88.55
2023-01-09T17:26:20.215Z,89.43
2023-01-09T17:28:51.527Z,88.99
2023-01-09T17:31:21.380Z,89.10
2023-01-09T17:33:51.204Z,89.38
2023-01-09T17:36:30.574Z,88.65
2023-01-09T17:39:01.116Z,88.51
2023-01-09T17:41:33.532Z,89.61
2023-01-09T17:44:04.309Z,88.83
2023-01-09T17:46:36.771Z,88.82
2023-01-09T17:49:08.320Z,88.38
2023-01-09T17:51:38.098Z,88.76
2023-01-09T17:54:08.927Z,88.18
2023-01-09T17:56:42.558Z,87.50
2023-01-09T17:59:14.191Z,87.72
2023-01-09T18:01:45.243Z,87.78
2023-01-09T18:04:15.099Z,87.21
2023-01-09T18:06:44.922Z,87.52
2023-01-09T18:09:17.187Z,88.52
2023-01-09T18:11:48.213Z,87.58
2023-01-09T18:14:17.956Z,87.18
2023-01-09T18:16:47.836Z,87.20
2023-01-09T18:19:17.592Z,86.79
2023-01-09T18:21:47.372Z,86.85
2023-01-09T18:24:17.154Z,87.15
2023-01-09T18:26:46.889Z,87.93
2023-01-09T18:29:16.660Z,87.17
2023-01-09T18:31:46.548Z,87.72
2023-01-09T18:34:16.307Z,88.18
2023-01-09T18:36:46.851Z,87.33
2023-01-09T18:39:16.593Z,87.66
2023-01-09T18:41:46.358Z,87.66
2023-01-09T18:44:17.452Z,87.85
2023-01-09T18:46:47.182Z,88.14
2023-01-09T18:49:17.209Z,88.11
2023-01-09T18:51:47.038Z,88.01
2023-01-09T18:54:16.755Z,87.99
2023-01-09T18:56:47.014Z,88.53
2023-01-09T18:59:16.821Z,88.86
2023-01-09T19:01:46.808Z,88.59
2023-01-09T19:04:16.612Z,88.26
2023-01-09T19:06:46.388Z,88.54
2023-01-09T19:09:16.177Z,88.85
2023-01-09T19:11:46.088Z,88.90
2023-01-09T19:14:15.534Z,89.50
2023-01-09T19:16:45.317Z,89.95
2023-01-09T19:19:15.160Z,90.51
2023-01-09T19:21:45.489Z,89.26
2023-01-09T19:24:15.254Z,88.41
2023-01-09T19:26:46.465Z,88.31
2023-01-09T19:29:17.683Z,87.70
2023-01-09T19:31:48.618Z,87.50
2023-01-09T19:34:18.411Z,87.83
2023-01-09T19:36:48.217Z,87.40
2023-01-09T19:39:17.995Z,87.34
2023-01-09T19:41:47.880Z,87.36
2023-01-09T19:44:18.922Z,87.48
2023-01-09T19:46:48.643Z,87.66
2023-01-09T19:49:18.241Z,87.66
2023-01-09T19:51:48.100Z,86.84
2023-01-09T19:54:18.033Z,87.27
2023-01-09T19:56:47.758Z,86.65
2023-01-09T19:59:17.567Z,87.06
2023-01-09T20:01:47.890Z,87.07
2023-01-09T20:04:18.524Z,87.56
2023-01-09T20:06:49.878Z,87.80
2023-01-09T20:09:22.508Z,87.54
2023-01-09T20:11:52.345Z,87.17
2023-01-09T20:14:22.716Z,87.98
2023-01-09T20:16:54.145Z,87.46
2023-01-09T20:19:23.965Z,87.47
2023-01-09T20:21:53.940Z,86.93
2023-01-09T20:24:23.373Z,86.93
2023-01-09T20:26:53.149Z,87.49
2023-01-09T20:29:23.617Z,87.87
2023-01-09T20:31:53.410Z,87.66
2023-01-09T20:34:23.234Z,87.66
2023-01-09T20:36:54.422Z,87.02
2023-01-09T20:39:24.248Z,87.43
2023-01-09T20:41:53.696Z,86.54
2023-01-09T20:44:23.498Z,86.79
2023-01-09T20:46:53.571Z,86.41
2023-01-09T20:49:23.682Z,86.69
2023-01-09T20:51:54.201Z,86.32
2023-01-09T20:54:24.371Z,86.54
2023-01-09T20:56:54.126Z,86.13
2023-01-09T20:59:24.896Z,85.54
2023-01-09T21:01:54.655Z,84.96
2023-01-09T21:04:24.149Z,84.82
2023-01-09T21:06:53.855Z,84.84
2023-01-09T21:09:25.280Z,84.82
2023-01-09T21:11:55.038Z,84.47
2023-01-09T21:14:24.798Z,84.47
2023-01-09T21:16:55.407Z,85.03
2023-01-09T21:19:25.276Z,83.87
2023-01-09T21:21:55.021Z,83.91
2023-01-09T21:24:24.544Z,84.47
2023-01-09T21:26:54.291Z,84.34
2023-01-09T21:29:24.076Z,84.32
2023-01-09T21:31:56.056Z,84.32
2023-01-09T21:34:24.993Z,85.13
2023-01-09T21:36:54.831Z,86.05
2023-01-09T21:39:24.837Z,85.86
2023-01-09T21:42:12.615Z,85.11
2023-01-09T21:44:59.648Z,85.69
2023-01-09T21:47:28.353Z,85.66
2023-01-09T21:49:58.051Z,84.38
2023-01-09T21:52:28.147Z,85.45
2023-01-09T21:54:57.929Z,85.23
2023-01-09T21:57:27.628Z,85.16
2023-01-09T21:59:57.436Z,85.09
2023-01-09T22:02:27.171Z,84.45
2023-01-09T22:04:58.567Z,84.33
2023-01-09T22:07:28.065Z,84.51
2023-01-09T22:09:57.821Z,83.67
2023-01-09T22:12:27.623Z,83.77
2023-01-09T22:14:57.419Z,83.58
2023-01-09T22:17:28.835Z,83.17
2023-01-09T22:19:58.757Z,83.16
2023-01-09T22:22:28.239Z,83.13
2023-01-09T22:24:59.161Z,82.67
2023-01-09T22:27:28.654Z,83.61
2023-01-09T22:29:58.368Z,83.01
2023-01-09T22:32:28.107Z,83.24
2023-01-09T22:34:58.141Z,83.44
2023-01-09T22:37:27.852Z,83.44
2023-01-09T22:39:57.616Z,83.71
2023-01-09T22:42:27.347Z,83.33
2023-01-09T22:44:57.097Z,83.59
2023-01-09T22:47:26.881Z,83.55
2023-01-09T22:49:56.619Z,84.11
2023-01-09T22:52:28.536Z,84.11
2023-01-09T22:54:58.272Z,83.74
2023-01-09T22:57:28.291Z,83.29
2023-01-09T22:59:58.056Z,82.76
2023-01-09T23:02:27.678Z,83.04
2023-01-09T23:04:58.314Z,82.71
2023-01-09T23:07:28.395Z,82.71
2023-01-09T23:10:00.146Z,83.17
2023-01-09T23:12:29.764Z,82.46
2023-01-09T23:15:00.188Z,82.39
2023-01-09T23:17:30.226Z,83.15
2023-01-09T23:19:59.668Z,83.15
2023-01-09T23:22:29.486Z,83.06
2023-01-09T23:24:59.493Z,82.88
2023-01-09T23:27:29.234Z,83.57
2023-01-09T23:29:58.988Z,84.17
2023-01-09T23:32:28.726Z,84.71
2023-01-09T23:34:58.760Z,84.91
2023-01-09T23:37:28.595Z,85.07
2023-01-09T23:39:58.375Z,85.26
2023-01-09T23:42:45.465Z,85.53
2023-01-09T23:45:15.200Z,85.07
2023-01-09T23:47:45.294Z,85.16
2023-01-09T23:50:14.798Z,85.44
2023-01-09T23:52:45.212Z,85.45
2023-01-09T23:55:14.805Z,85.67
2023-01-09T23:57:44.896Z,85.44
